createdAt,value
2023-03-17T00:04:38.488Z,6.32
2023-03-17T00:09:40.770Z,4.90
2023-03-17T00:14:44.498Z,6.68
2023-03-17T00:19:46.548Z,7.90
2023-03-17T00:24:48.430Z,7.57
2023-03-17T00:29:50.085Z,7.55
2023-03-17T00:34:53.716Z,7.03
2023-03-17T00:39:56.288Z,10.77
2023-03-17T00:45:01.270Z,9.07
2023-03-17T00:50:03.125Z,7.10
2023-03-17T00:55:07.929Z,10.23
2023-03-17T01:00:26.599Z,10.10
2023-03-17T01:05:28.618Z,7.75
2023-03-17T01:10:31.268Z,13.88
2023-03-17T01:15:34.573Z,8.43
2023-03-17T01:20:36.897Z,6.38
2023-03-17T01:25:41.430Z,8.85
2023-03-17T01:30:43.787Z,6.13
2023-03-17T01:35:46.104Z,8.48
2023-03-17T01:40:50.508Z,11.85
2023-03-17T01:46:11.787Z,14.23
2023-03-17T01:51:22.312Z,9.82
2023-03-17T01:56:24.713Z,11.02
2023-03-17T02:01:30.664Z,9.77
2023-03-17T02:06:32.778Z,13.00
2023-03-17T02:11:34.979Z,9.02
2023-03-17T02:16:37.353Z,10.27
2023-03-17T02:21:45.217Z,8.52
2023-03-17T02:26:49.561Z,11.88
2023-03-17T02:31:51.678Z,9.75
2023-03-17T02:36:53.412Z,12.80
2023-03-17T02:41:55.353Z,12.98
2023-03-17T02:46:59.516Z,13.93
2023-03-17T02:52:01.604Z,14.30
2023-03-17T02:57:03.825Z,14.20
2023-03-17T03:02:05.737Z,13.95
2023-03-17T03:07:07.533Z,17.65
2023-03-17T03:12:10.098Z,21.05
2023-03-17T03:17:11.880Z,17.15
2023-03-17T03:22:13.528Z,15.85
2023-03-17T03:27:15.116Z,20.35
2023-03-17T03:32:17.080Z,14.27
2023-03-17T03:37:18.689Z,17.05
2023-03-17T03:42:20.457Z,19.33
2023-03-17T03:47:22.331Z,17.92
2023-03-17T03:52:23.957Z,19.75
2023-03-17T03:57:25.608Z,20.45
2023-03-17T04:02:27.487Z,18.55
2023-03-17T04:07:29.300Z,18.77
2023-03-17T04:12:31.418Z,19.23
2023-03-17T04:17:33.244Z,18.63
2023-03-17T04:22:34.928Z,19.02
2023-03-17T04:27:37.507Z,19.48
2023-03-17T04:32:39.935Z,15.38
2023-03-17T04:37:42.013Z,17.35
2023-03-17T04:42:43.703Z,17.08
2023-03-17T04:47:48.458Z,17.75
2023-03-17T04:52:50.102Z,18.05
2023-03-17T04:57:51.806Z,19.08
2023-03-17T05:02:53.479Z,18.60
2023-03-17T05:07:55.372Z,19.33
2023-03-17T05:12:56.929Z,16.48
2023-03-17T05:17:58.591Z,15.07
2023-03-17T05:23:00.736Z,19.30
2023-03-17T05:28:03.108Z,20.90
2023-03-17T05:33:06.066Z,15.77
2023-03-17T05:38:08.965Z,18.85
2023-03-17T05:43:11.102Z,17.83
2023-03-17T05:48:13.191Z,20.13
2023-03-17T05:53:14.939Z,13.75
2023-03-17T05:58:17.045Z,14.75
2023-03-17T06:03:18.723Z,13.65
2023-03-17T06:08:20.381Z,13.02
2023-03-17T06:13:22.391Z,14.60
2023-03-17T06:18:24.250Z,12.73
2023-03-17T06:23:25.922Z,11.70
2023-03-17T06:28:27.551Z,17.30
2023-03-17T06:33:29.478Z,10.80
2023-03-17T06:38:31.300Z,8.18
2023-03-17T06:43:33.248Z,9.38
2023-03-17T06:48:35.263Z,14.18
2023-03-17T06:53:37.227Z,14.43
2023-03-17T06:58:39.880Z,11.77
2023-03-17T07:03:41.880Z,10.60
2023-03-17T07:08:43.586Z,8.80
2023-03-17T07:13:45.431Z,10.05
2023-03-17T07:18:47.273Z,6.82
2023-03-17T07:23:48.961Z,11.55
2023-03-17T07:28:50.825Z,9.65
2023-03-17T07:33:52.826Z,12.15
2023-03-17T07:38:55.397Z,14.40
2023-03-17T07:43:57.426Z,14.43
2023-03-17T07:48:59.143Z,9.65
2023-03-17T07:54:04.575Z,9.15
2023-03-17T07:59:10.994Z,19.65
2023-03-17T08:04:13.248Z,12.48
2023-03-17T08:09:14.920Z,7.97
2023-03-17T08:14:16.700Z,10.05
2023-03-17T08:19:18.584Z,10.05
2023-03-17T08:24:20.754Z,8.05
2023-03-17T08:29:23.761Z,10.93
2023-03-17T08:34:26.272Z,8.18
2023-03-17T08:39:27.874Z,7.13
2023-03-17T08:44:29.765Z,8.60
2023-03-17T08:49:34.600Z,13.63
2023-03-17T08:54:36.757Z,10.93
2023-03-17T08:59:38.821Z,8.45
2023-03-17T09:04:41.202Z,9.60
2023-03-17T09:09:42.883Z,7.95
2023-03-17T09:14:45.247Z,7.57
2023-03-17T09:19:48.213Z,8.15
2023-03-17T09:24:49.948Z,8.38
2023-03-17T09:29:51.899Z,10.70
2023-03-17T09:34:53.627Z,9.82
2023-03-17T09:39:55.725Z,10.02
2023-03-17T09:45:16.589Z,8.95
2023-03-17T09:50:29.306Z,7.43
2023-03-17T09:55:34.218Z,8.15
2023-03-17T10:00:35.973Z,11.10
2023-03-17T10:05:38.685Z,8.88
2023-03-17T10:10:49.176Z,9.77
2023-03-17T10:15:58.281Z,5.97
2023-03-17T10:21:03.943Z,7.53
2023-03-17T10:26:16.270Z,10.38
2023-03-17T10:31:28.496Z,9.85
2023-03-17T10:36:37.637Z,7.60
2023-03-17T10:46:54.397Z,7.13
2023-03-17T10:51:56.165Z,9.13
2023-03-17T10:57:06.190Z,7.75
2023-03-17T11:02:43.344Z,13.05
2023-03-17T11:07:45.612Z,10.93
2023-03-17T11:12:50.421Z,6.03
2023-03-17T11:17:58.841Z,12.05
2023-03-17T11:23:08.946Z,6.57
2023-03-17T11:28:19.988Z,10.13
2023-03-17T11:33:49.773Z,9.20
2023-03-17T11:39:24.154Z,9.88
2023-03-17T11:44:43.894Z,7.10
2023-03-17T11:49:53.992Z,7.38
2023-03-17T11:55:22.414Z,7.85
2023-03-17T12:00:36.812Z,8.98
2023-03-17T12:05:39.810Z,6.50
2023-03-17T12:10:50.620Z,13.10
2023-03-17T12:16:13.692Z,20.30
2023-03-17T12:21:21.250Z,7.72
2023-03-17T12:26:39.397Z,8.82
2023-03-17T12:32:05.513Z,10.63
2023-03-17T12:37:07.688Z,20.17
2023-03-17T12:42:12.027Z,6.63
2023-03-17T12:47:55.244Z,5.68
2023-03-17T12:53:26.621Z,8.32
2023-03-17T12:58:31.257Z,13.05
2023-03-17T13:03:34.195Z,7.95
2023-03-17T13:08:41.167Z,5.72
2023-03-17T13:13:55.092Z,5.18
2023-03-17T13:19:12.415Z,9.48
2023-03-17T13:24:16.968Z,9.10
2023-03-17T13:29:34.022Z,5.78
2023-03-17T13:34:53.014Z,5.72
2023-03-17T13:40:14.051Z,11.90
2023-03-17T13:45:33.996Z,5.50
2023-03-17T13:50:40.057Z,5.15
2023-03-17T13:56:02.772Z,5.95
2023-03-17T14:01:07.309Z,10.27
2023-03-17T14:06:12.829Z,5.97
2023-03-17T14:11:37.741Z,4.47
2023-03-17T14:17:07.252Z,9.38
2023-03-17T14:22:21.179Z,6.32
2023-03-17T14:27:24.676Z,7.80
2023-03-17T14:32:26.782Z,5.50
2023-03-17T14:37:28.455Z,9.07
2023-03-17T14:42:31.920Z,5.97
2023-03-17T14:47:45.498Z,7.50
2023-03-17T14:52:50.424Z,7.30
2023-03-17T14:57:52.920Z,12.18
2023-03-17T15:02:56.570Z,6.97
2023-03-17T15:07:58.428Z,9.00
2023-03-17T15:13:02.197Z,7.82
2023-03-17T15:18:10.982Z,9.18
2023-03-17T15:23:18.950Z,9.73
2023-03-17T15:28:22.528Z,6.37
2023-03-17T15:33:30.488Z,7.25
2023-03-17T15:38:33.647Z,10.63
2023-03-17T15:43:35.887Z,7.97
2023-03-17T15:48:37.712Z,13.05
2023-03-17T15:53:39.303Z,5.28
2023-03-17T15:58:41.370Z,13.48
2023-03-17T16:03:45.388Z,9.70
2023-03-17T16:08:47.883Z,7.00
2023-03-17T16:13:49.735Z,5.85
2023-03-17T16:18:52.559Z,5.97
2023-03-17T16:23:54.942Z,11.10
2023-03-17T16:28:56.904Z,11.40
2023-03-17T16:33:58.791Z,6.75
2023-03-17T16:39:01.375Z,8.23
2023-03-17T16:44:03.323Z,7.18
2023-03-17T16:49:05.610Z,7.63
2023-03-17T16:54:07.541Z,5.65
2023-03-17T16:59:21.144Z,4.57
2023-03-17T17:04:24.248Z,5.72
2023-03-17T17:09:26.064Z,5.13
2023-03-17T17:14:27.741Z,4.25
2023-03-17T17:19:29.574Z,5.90
2023-03-17T17:24:31.268Z,9.90
2023-03-17T17:29:33.131Z,5.20
2023-03-17T17:34:34.747Z,5.95
2023-03-17T17:39:36.768Z,6.13
2023-03-17T17:44:38.807Z,6.60
2023-03-17T17:49:41.343Z,6.30
2023-03-17T17:54:42.945Z,5.97
2023-03-17T17:59:44.735Z,6.38
2023-03-17T18:04:46.829Z,6.85
2023-03-17T18:09:48.503Z,5.72
2023-03-17T18:14:50.383Z,5.03
2023-03-17T18:19:55.480Z,11.32
2023-03-17T18:24:57.131Z,6.60
2023-03-17T18:29:59.072Z,5.85
2023-03-17T18:35:05.186Z,7.03
2023-03-17T18:40:15.081Z,6.95
2023-03-17T18:45:17.158Z,5.15
2023-03-17T18:50:21.841Z,9.48
2023-03-17T18:55:23.735Z,5.55
2023-03-17T19:00:26.503Z,5.00
2023-03-17T19:05:28.508Z,8.07
2023-03-17T19:10:31.439Z,5.65
2023-03-17T19:15:34.118Z,7.18
2023-03-17T19:20:36.551Z,4.70
2023-03-17T19:25:38.512Z,8.57
2023-03-17T19:30:40.350Z,6.63
2023-03-17T19:35:44.290Z,4.30
2023-03-17T19:40:46.288Z,6.40
2023-03-17T19:45:48.486Z,5.15
2023-03-17T19:50:50.550Z,5.38
2023-03-17T19:55:52.269Z,8.52
2023-03-17T20:00:54.060Z,6.05
2023-03-17T20:05:55.761Z,6.28
2023-03-17T20:10:58.069Z,4.60
2023-03-17T20:16:01.599Z,4.63
2023-03-17T20:21:05.854Z,5.65
2023-03-17T20:26:08.398Z,6.97
2023-03-17T20:31:10.341Z,4.75
2023-03-17T20:36:12.930Z,4.30
2023-03-17T20:41:17.550Z,5.28
2023-03-17T20:46:24.573Z,3.88
2023-03-17T20:51:26.686Z,5.55
2023-03-17T20:56:29.877Z,4.93
2023-03-17T21:01:36.922Z,5.57
2023-03-17T21:06:39.624Z,4.55
2023-03-17T21:11:41.674Z,5.53
2023-03-17T21:16:45.116Z,6.68
2023-03-17T21:21:46.951Z,4.00
2023-03-17T21:26:48.600Z,6.18
2023-03-17T21:31:50.652Z,6.03
2023-03-17T21:36:52.971Z,4.40
2023-03-17T21:41:55.349Z,5.57
2023-03-17T21:46:56.996Z,7.50
2023-03-17T21:51:58.696Z,9.18
2023-03-17T21:57:00.534Z,6.85
2023-03-17T22:02:02.938Z,7.57
2023-03-17T22:07:04.599Z,5.72
2023-03-17T22:12:07.176Z,10.48
2023-03-17T22:17:10.118Z,5.63
2023-03-17T22:22:11.994Z,8.05
2023-03-17T22:27:15.498Z,12.40
2023-03-17T22:32:17.303Z,8.98
2023-03-17T22:37:19.138Z,5.45
2023-03-17T22:42:21.093Z,7.57
2023-03-17T22:47:22.989Z,10.45
2023-03-17T22:52:24.630Z,9.18
2023-03-17T22:57:26.262Z,8.93
2023-03-17T23:02:27.907Z,10.93
2023-03-17T23:07:35.631Z,6.93
2023-03-17T23:12:43.916Z,7.55
2023-03-17T23:17:46.278Z,5.90
2023-03-17T23:22:48.238Z,8.50
2023-03-17T23:27:50.832Z,8.05
2023-03-17T23:32:52.676Z,8.15
2023-03-17T23:37:55.392Z,7.78
2023-03-17T23:42:57.762Z,7.10
2023-03-17T23:47:59.901Z,7.13
2023-03-17T23:53:02.524Z,10.50
2023-03-17T23:58:04.963Z,10.60
